Time;durP1;ratioP1;P1;durP2;ratioP2;P2;SDS_P1;SDS_P2;PMS_P1;PMS_P2;Temp;Humidity;BMP_temperature;BMP_pressure;BME280_temperature;BME280_humidity;BME280_pressure;Samples;Min_cycle;Max_cycle;Signal;HPM_P1;HPM_P2
2023/01/22 00:01:11;;;;;;;16.10;10.50;;;1.40;94.10;;;1.76;64.45;99444.81;4963970;28;123461;-71
2023/01/22 00:03:40;;;;;;;15.30;8.60;;;1.40;94.10;;;1.77;64.92;99443.78;4965859;28;120236;-72
2023/01/22 00:06:10;;;;;;;18.30;10.17;;;1.40;94.00;;;1.77;64.37;99441.06;4952884;28;120084;-71
2023/01/22 00:08:37;;;;;;;13.37;8.27;;;1.40;94.10;;;1.75;64.37;99442.34;4966068;28;123752;-71
2023/01/22 00:11:04;;;;;;;14.70;8.90;;;1.30;93.90;;;1.74;64.85;99440.69;4962028;28;123710;-71
2023/01/22 00:13:31;;;;;;;13.33;8.10;;;1.30;94.00;;;1.72;64.42;99443.66;4958315;28;118716;-71
2023/01/22 00:15:58;;;;;;;14.43;8.50;;;1.30;94.00;;;1.74;64.75;99429.78;4951296;28;118836;-71
2023/01/22 00:18:25;;;;;;;11.40;7.93;;;1.30;94.00;;;1.75;64.46;99431.47;4949451;28;124450;-71
2023/01/22 00:20:53;;;;;;;11.93;7.77;;;1.40;94.10;;;1.77;64.67;99435.59;4949115;28;123873;-72
2023/01/22 00:23:20;;;;;;;17.30;7.80;;;1.30;94.00;;;1.79;64.29;99426.34;4958294;28;118446;-72
2023/01/22 00:25:47;;;;;;;12.87;9.10;;;1.40;94.10;;;1.82;64.65;99420.41;4940251;28;118081;-72
2023/01/22 00:28:15;;;;;;;14.87;8.63;;;1.40;94.00;;;1.84;64.63;99431.91;4950084;28;123258;-72
2023/01/22 00:30:42;;;;;;;15.37;9.50;;;1.40;94.00;;;1.83;64.34;99424.78;4963255;28;123067;-72
2023/01/22 00:33:08;;;;;;;15.73;8.90;;;1.40;94.00;;;1.83;64.25;99422.06;4962554;28;119984;-72
2023/01/22 00:35:35;;;;;;;16.70;9.53;;;1.40;94.00;;;1.79;64.55;99420.91;4959343;28;118760;-73
2023/01/22 00:38:02;;;;;;;12.13;8.07;;;1.40;94.00;;;1.74;64.75;99414.25;4970364;28;124518;-72
2023/01/22 00:40:29;;;;;;;16.40;9.83;;;1.30;94.00;;;1.70;64.34;99412.28;4982661;28;122729;-73
2023/01/22 00:42:55;;;;;;;14.87;9.47;;;1.30;94.00;;;1.66;64.59;99425.53;4952922;28;119281;-72
2023/01/22 00:45:22;;;;;;;14.90;9.27;;;1.30;94.10;;;1.63;64.42;99412.38;4962065;28;118561;-72
2023/01/22 00:47:49;;;;;;;14.07;8.70;;;1.20;94.10;;;1.61;65.00;99411.78;4962091;28;124005;-72
2023/01/22 00:50:17;;;;;;;14.87;8.60;;;1.40;94.10;;;1.63;64.82;99417.84;4963338;28;122924;-72
2023/01/22 00:52:44;;;;;;;13.20;8.63;;;1.20;94.10;;;1.64;65.16;99414.06;4956604;28;120445;-72
2023/01/22 00:55:11;;;;;;;13.30;8.40;;;1.20;94.10;;;1.64;64.91;99419.50;4958575;28;119952;-72
2023/01/22 00:57:37;;;;;;;12.20;8.40;;;1.20;94.10;;;1.65;64.91;99415.72;4956781;28;124203;-72
2023/01/22 01:00:04;;;;;;;15.60;9.83;;;1.20;94.10;;;1.67;65.18;99416.31;4961414;28;123595;-72
2023/01/22 01:02:31;;;;;;;10.93;7.70;;;1.30;94.10;;;1.69;64.98;99416.06;4964388;28;119138;-72
2023/01/22 01:04:57;;;;;;;13.90;8.30;;;1.30;94.20;;;1.71;64.85;99420.19;4959167;28;118937;-72
2023/01/22 01:07:24;;;;;;;11.87;7.77;;;1.30;94.20;;;1.72;64.72;99415.56;4958934;28;124087;-72
2023/01/22 01:09:50;;;;;;;13.17;8.93;;;1.30;94.20;;;1.70;64.92;99424.00;4959673;28;124078;-72
2023/01/22 01:12:17;;;;;;;14.07;9.00;;;1.20;94.20;;;1.67;64.89;99427.19;4959739;28;119020;-72
2023/01/22 01:14:43;;;;;;;13.43;8.83;;;1.20;94.20;;;1.66;64.68;99420.06;4960137;28;118989;-72
2023/01/22 01:17:10;;;;;;;14.40;9.20;;;1.20;94.20;;;1.65;64.75;99415.72;4953093;28;125523;-72
2023/01/22 01:19:36;;;;;;;14.50;9.10;;;1.20;94.20;;;1.65;65.12;99423.06;4965458;28;123754;-72
2023/01/22 01:22:04;;;;;;;12.27;8.27;;;1.20;94.20;;;1.65;65.20;99423.88;4963348;28;119081;-73
2023/01/22 01:24:31;;;;;;;12.93;8.83;;;1.40;94.30;;;1.70;65.16;99423.16;4954738;28;119087;-73
2023/01/22 01:26:57;;;;;;;13.93;8.77;;;1.40;94.30;;;1.72;64.76;99426.47;4960274;28;124403;-72
2023/01/22 01:29:24;;;;;;;14.50;8.50;;;1.30;94.20;;;1.74;64.81;99421.63;4959362;28;123791;-72
2023/01/22 01:31:53;;;;;;;13.47;8.43;;;1.30;94.30;;;1.76;64.53;99423.03;4963134;28;119266;-72
2023/01/22 01:34:21;;;;;;;12.50;8.77;;;1.30;94.30;;;1.82;64.59;99423.16;4958499;28;118719;-72
2023/01/22 01:36:47;;;;;;;14.33;7.53;;;1.30;94.30;;;1.82;64.66;99412.25;4951457;28;124077;-72
2023/01/22 01:39:14;;;;;;;15.30;9.00;;;1.30;94.20;;;1.81;64.64;99418.78;4963742;28;123742;-72
2023/01/22 01:41:40;;;;;;;13.70;8.77;;;1.30;94.20;;;1.81;65.01;99426.94;4959918;28;119371;-72
2023/01/22 01:44:10;;;;;;;13.03;7.87;;;1.40;94.20;;;1.85;64.53;99418.03;4959035;28;119938;-72
2023/01/22 01:46:53;;;;;;;15.50;9.17;;;1.40;94.20;;;1.89;64.79;99416.50;4954549;28;123674;-72
2023/01/22 01:49:30;;;;;;;11.70;8.10;;;1.40;94.20;;;1.89;64.33;99416.50;4956251;28;123426;-72
2023/01/22 01:52:02;;;;;;;11.57;7.93;;;1.40;94.20;;;1.87;64.56;99407.72;4960228;28;118605;-72
2023/01/22 01:54:30;;;;;;;15.77;8.20;;;1.40;94.20;;;1.84;64.62;99407.38;4955115;28;119405;-74
2023/01/22 01:57:12;;;;;;;12.63;8.23;;;1.70;94.30;;;1.90;64.68;99409.16;4955487;28;123567;-76
2023/01/22 01:59:38;;;;;;;16.60;9.13;;;1.40;94.20;;;1.88;64.78;99412.13;4956186;28;123525;-72
2023/01/22 02:02:05;;;;;;;14.60;9.50;;;1.40;94.20;;;1.91;64.45;99408.91;4975873;28;118607;-72
2023/01/22 02:04:32;;;;;;;13.70;8.07;;;1.50;94.30;;;1.94;64.44;99408.44;4966729;28;119056;-72
2023/01/22 02:06:58;;;;;;;12.67;7.47;;;1.50;94.20;;;1.98;64.62;99415.03;4963641;28;124419;-72
2023/01/22 02:09:28;;;;;;;9.70;6.90;;;1.50;94.20;;;2.03;64.38;99410.78;4961443;28;123753;-72
2023/01/22 02:11:55;;;;;;;12.70;8.30;;;1.50;94.20;;;2.06;64.28;99422.00;4963275;28;118876;-75
2023/01/22 02:14:30;;;;;;;12.43;8.07;;;1.60;94.20;;;2.06;64.38;99411.13;4961477;28;119451;-74
2023/01/22 02:17:13;;;;;;;17.53;8.30;;;1.60;94.20;;;2.08;64.47;99416.34;4962359;28;123906;-75
2023/01/22 02:19:43;;;;;;;13.50;8.47;;;1.60;94.20;;;2.02;64.57;99409.97;4975319;28;123762;-77
2023/01/22 02:22:31;;;;;;;14.23;7.53;;;1.60;94.20;;;2.04;64.67;99413.25;4963340;28;119295;-74
2023/01/22 02:24:58;;;;;;;13.23;8.03;;;2.20;94.40;;;2.02;64.36;99407.22;4962681;28;118928;-73
2023/01/22 02:27:25;;;;;;;12.50;8.00;;;1.60;94.20;;;2.03;64.69;99402.59;4978363;28;123877;-73
2023/01/22 02:29:51;;;;;;;13.80;8.70;;;1.60;94.20;;;2.03;64.46;99410.78;4965713;28;122503;-73
2023/01/22 02:32:18;;;;;;;11.00;7.77;;;1.60;94.10;;;2.03;64.49;99410.78;4948466;28;120003;-73
2023/01/22 02:34:44;;;;;;;12.03;8.17;;;1.60;94.10;;;2.02;64.17;99404.50;4948317;28;119969;-73
2023/01/22 02:37:11;;;;;;;11.57;8.23;;;1.60;94.10;;;2.02;64.56;99409.13;4962080;28;124587;-73
2023/01/22 02:39:38;;;;;;;13.27;8.10;;;1.70;94.20;;;2.01;64.56;99404.72;4961005;28;123717;-73
2023/01/22 02:42:05;;;;;;;13.10;8.10;;;1.60;94.20;;;1.98;64.65;99404.13;4965480;28;119236;-73
2023/01/22 02:44:32;;;;;;;15.30;7.83;;;1.60;94.20;;;1.98;64.54;99404.13;4965992;28;119044;-73
2023/01/22 02:46:59;;;;;;;12.83;8.77;;;1.50;94.10;;;2.00;64.54;99403.91;4963636;28;123944;-73
2023/01/22 02:49:25;;;;;;;10.10;7.27;;;1.60;94.20;;;2.00;64.46;99403.91;4959916;28;123751;-73
2023/01/22 02:51:52;;;;;;;13.80;8.87;;;1.60;94.20;;;2.00;64.50;99412.09;4958181;28;119120;-73
2023/01/22 02:54:18;;;;;;;12.87;7.97;;;1.60;94.20;;;2.01;64.96;99404.72;4967269;28;118973;-74
2023/01/22 02:56:45;;;;;;;16.47;10.30;;;1.60;94.20;;;2.05;64.59;99409.47;4967362;28;124399;-73
2023/01/22 02:59:11;;;;;;;15.77;8.93;;;1.60;94.20;;;2.05;64.87;99409.47;4966471;28;123761;-74
2023/01/22 03:01:38;;;;;;;14.50;8.80;;;1.60;94.30;;;2.08;64.85;99413.59;4965173;28;119179;-73
2023/01/22 03:04:11;;;;;;;13.60;8.10;;;1.60;94.30;;;2.10;64.71;99406.03;4963900;28;118886;-74
2023/01/22 03:06:42;;;;;;;11.97;8.23;;;1.60;94.30;;;2.13;64.38;99405.53;4957993;28;124176;-74
2023/01/22 03:09:11;;;;;;;15.40;9.43;;;1.70;94.40;;;2.13;64.38;99392.72;4954094;28;123456;-73
2023/01/22 03:11:41;;;;;;;12.07;8.00;;;1.60;94.30;;;2.13;64.32;99405.53;4956751;28;119329;-74
2023/01/22 03:22:25;;;;;;;9.93;6.97;;;0.10;93.60;;;2.20;64.80;99395.28;4964946;28;120747;-73
2023/01/22 03:24:52;;;;;;;11.90;8.13;;;1.70;94.30;;;2.22;64.40;99382.25;4983745;28;119350;-73
2023/01/22 03:27:22;;;;;;;16.00;9.10;;;1.70;94.30;;;2.24;64.30;99390.22;4965482;28;123976;-73
2023/01/22 03:29:48;;;;;;;12.13;8.40;;;1.90;94.30;;;2.21;64.58;99392.34;4966757;28;123398;-73
2023/01/22 03:32:15;;;;;;;14.43;8.73;;;1.70;94.20;;;2.21;64.31;99391.53;4954038;28;119370;-73
2023/01/22 03:34:42;;;;;;;13.07;8.00;;;1.80;94.20;;;2.19;64.43;99391.75;4965513;28;118791;-74
2023/01/22 03:37:13;;;;;;;16.17;9.97;;;1.80;94.20;;;2.19;64.63;99394.47;4951779;28;123838;-73
2023/01/22 03:39:39;;;;;;;11.23;7.57;;;1.80;94.20;;;2.20;64.46;99398.03;4954831;28;124023;-73
2023/01/22 03:42:07;;;;;;;12.20;7.83;;;1.90;94.30;;;2.20;64.71;99398.03;4967482;28;120190;-74
2023/01/22 03:44:33;;;;;;;13.30;7.80;;;1.80;94.30;;;2.20;64.40;99390.69;4966822;28;118730;-73
2023/01/22 03:47:00;;;;;;;12.43;8.40;;;1.80;94.30;;;2.19;64.54;99394.47;4964518;28;124330;-73
2023/01/22 03:49:27;;;;;;;13.83;7.83;;;1.80;94.20;;;2.20;64.09;99396.16;4962392;28;123775;-74
2023/01/22 03:51:54;;;;;;;13.77;8.67;;;1.80;94.20;;;2.21;64.52;99392.34;4961819;28;118102;-73
2023/01/22 03:54:20;;;;;;;13.33;8.63;;;1.80;94.20;;;2.21;64.54;99389.63;4955696;28;118885;-73
2023/01/22 03:56:47;;;;;;;12.67;8.00;;;1.80;94.20;;;2.23;64.85;99400.28;4966009;28;124530;-73
2023/01/22 03:59:13;;;;;;;11.80;7.93;;;1.80;94.20;;;2.25;64.59;99398.13;4957049;28;124450;-72
2023/01/22 04:01:39;;;;;;;12.57;8.30;;;1.80;94.20;;;2.25;64.37;99397.31;4947212;28;119921;-73
2023/01/22 04:04:07;;;;;;;12.53;7.80;;;1.80;94.20;;;2.26;64.53;99394.34;4967230;28;118666;-73
2023/01/22 04:06:34;;;;;;;13.17;8.60;;;1.80;94.20;;;2.27;64.31;99400.63;4959006;28;123819;-72
2023/01/22 04:09:00;;;;;;;13.03;8.97;;;2.50;94.50;;;2.27;64.52;99397.91;4951880;28;123687;-72
2023/01/22 04:11:27;;;;;;;11.70;8.47;;;1.80;94.20;;;2.29;64.43;99393.03;4966028;28;119132;-74
2023/01/22 04:13:54;;;;;;;14.87;9.17;;;2.80;94.60;;;2.27;64.35;99401.44;4967421;28;119932;-73
2023/01/22 04:16:21;;;;;;;14.10;9.17;;;1.80;94.30;;;2.26;64.56;99398.94;4966903;28;123313;-73
2023/01/22 04:18:47;;;;;;;10.97;7.27;;;1.80;94.20;;;2.26;64.27;99393.50;4965766;28;123781;-72
2023/01/22 04:21:14;;;;;;;10.27;7.67;;;1.80;94.30;;;2.29;64.64;99395.75;4964622;28;119703;-72
2023/01/22 04:23:40;;;;;;;12.03;7.50;;;1.90;94.30;;;2.30;64.70;99403.69;4965198;28;119038;-73
2023/01/22 04:26:07;;;;;;;16.70;9.27;;;1.90;94.30;;;2.34;64.56;99395.88;4954680;28;124198;-72
2023/01/22 04:28:33;;;;;;;14.17;8.33;;;1.90;94.30;;;2.36;64.28;99408.16;4967961;28;124380;-72
2023/01/22 04:31:00;;;;;;;15.40;9.67;;;1.90;94.30;;;2.37;64.50;99401.66;4965910;28;119368;-72
2023/01/22 04:33:26;;;;;;;13.90;8.30;;;1.90;94.30;;;2.40;64.23;99397.59;4971252;28;118769;-73
2023/01/22 04:35:54;;;;;;;14.97;9.03;;;2.00;94.30;;;2.43;64.44;99397.09;4962335;28;124114;-74
2023/01/22 04:38:21;;;;;;;12.20;8.43;;;2.00;94.30;;;2.45;64.51;99397.69;4962010;28;123927;-72
2023/01/22 04:40:47;;;;;;;12.73;8.13;;;2.20;94.40;;;2.44;64.16;99390.56;4961519;28;119637;-72
2023/01/22 04:43:14;;;;;;;14.17;8.90;;;2.00;94.30;;;2.45;64.49;99402.34;4961362;28;119049;-72
2023/01/22 04:45:40;;;;;;;15.10;8.87;;;2.00;94.30;;;2.43;64.21;99399.84;4956686;28;124000;-73
2023/01/22 04:48:08;;;;;;;13.10;9.00;;;2.00;94.30;;;2.42;64.34;99398.19;4962250;28;124301;-72
2023/01/22 04:50:34;;;;;;;15.70;9.40;;;2.00;94.30;;;2.41;64.36;99402.78;4962109;28;119218;-72
2023/01/22 04:53:04;;;;;;;13.97;9.17;;;2.00;94.30;;;2.43;64.56;99405.28;4967425;28;97166;-72
2023/01/22 04:55:31;;;;;;;14.43;9.33;;;2.00;94.30;;;2.46;64.47;99412.16;4947854;28;123858;-72
2023/01/22 04:57:59;;;;;;;15.07;8.80;;;2.20;94.40;;;2.48;64.57;99413.56;4952040;28;123639;-72
2023/01/22 05:00:27;;;;;;;14.17;7.97;;;2.00;94.30;;;2.52;64.38;99414.72;4944207;28;121783;-73
2023/01/22 05:02:59;;;;;;;12.97;8.87;;;2.10;94.30;;;2.55;64.37;99419.72;4951623;28;119941;-73
2023/01/22 05:05:28;;;;;;;15.80;8.47;;;2.10;94.30;;;2.56;64.08;99415.91;4962447;28;123735;-72
2023/01/22 05:07:54;;;;;;;13.03;9.20;;;2.10;94.30;;;2.58;64.39;99413.75;4959999;28;123757;-72
2023/01/22 05:10:22;;;;;;;18.10;9.73;;;2.10;94.30;;;2.59;64.47;99415.41;4958493;28;119472;-72
2023/01/22 05:12:49;;;;;;;14.30;9.43;;;2.20;94.40;;;2.59;64.16;99420.03;4948202;28;119392;-72
2023/01/22 05:15:16;;;;;;;14.53;8.87;;;2.10;94.20;;;2.59;64.03;99426.31;4949708;28;124070;-72
2023/01/22 05:17:43;;;;;;;16.37;9.70;;;2.70;94.50;;;2.58;64.28;99432.84;4954957;28;123821;-73
2023/01/22 05:20:10;;;;;;;15.50;9.60;;;2.20;94.30;;;2.60;64.22;99436.16;4951121;28;119421;-72
2023/01/22 05:22:36;;;;;;;15.10;9.10;;;2.20;94.30;;;2.60;64.08;99433.41;4945883;28;118920;-72
2023/01/22 05:25:03;;;;;;;14.57;9.03;;;2.20;94.30;;;2.61;64.25;99431.53;4951027;28;123135;-72
2023/01/22 05:27:30;;;;;;;14.63;8.73;;;2.20;94.20;;;2.61;64.26;99435.09;4960054;28;124061;-73
2023/01/22 05:29:56;;;;;;;14.60;9.33;;;2.30;94.30;;;2.62;63.99;99436.72;4951806;28;119233;-72
2023/01/22 05:32:23;;;;;;;14.53;9.13;;;2.20;94.20;;;2.60;64.12;99438.03;4964990;28;119061;-72
2023/01/22 05:34:50;;;;;;;17.20;10.50;;;2.20;94.30;;;2.58;64.37;99441.03;4962331;28;123939;-72
2023/01/22 05:37:17;;;;;;;16.47;9.90;;;2.20;94.30;;;2.56;64.24;99440.44;4964762;28;123777;-72
2023/01/22 05:39:43;;;;;;;16.77;10.27;;;2.10;94.30;;;2.58;64.46;99435.59;4952725;28;119196;-73
2023/01/22 05:42:17;;;;;;;14.03;8.70;;;2.10;94.30;;;2.62;64.29;99435.91;4957152;28;119677;-72
2023/01/22 05:44:43;;;;;;;16.07;9.67;;;2.10;94.30;;;2.61;64.12;99445.19;4961102;28;124361;-73
2023/01/22 05:47:12;;;;;;;15.63;8.97;;;2.20;94.40;;;2.64;64.28;99445.50;4959870;28;123632;-72
2023/01/22 05:49:39;;;;;;;17.90;10.50;;;2.10;94.30;;;2.62;64.37;99446.81;4962729;28;119749;-73
2023/01/22 05:52:09;;;;;;;16.07;9.50;;;2.20;94.30;;;2.62;64.17;99447.66;4965906;28;119900;-73
2023/01/22 05:54:38;;;;;;;13.80;8.60;;;2.20;94.30;;;2.63;64.23;99452.06;4965059;28;124191;-73
2023/01/22 05:57:05;;;;;;;12.90;8.60;;;2.20;94.30;;;2.66;64.20;99453.47;4966689;28;125175;-72
2023/01/22 05:59:31;;;;;;;14.53;8.87;;;2.20;94.30;;;2.68;64.26;99455.94;4961227;28;119224;-72
2023/01/22 06:01:58;;;;;;;15.50;9.90;;;2.20;94.30;;;2.70;63.92;99451.06;4956203;28;119946;-72
2023/01/22 06:04:24;;;;;;;16.00;9.87;;;2.20;94.30;;;2.71;64.12;99458.16;4949450;28;124327;-72
2023/01/22 06:06:51;;;;;;;15.70;9.63;;;2.40;94.40;;;2.72;63.98;99451.66;4954590;28;123962;-73
2023/01/22 06:09:17;;;;;;;14.57;9.60;;;2.30;94.30;;;2.74;64.09;99449.47;4952114;28;119295;-73
2023/01/22 06:11:44;;;;;;;15.70;9.33;;;2.30;94.30;;;2.76;64.26;99455.53;4950720;28;119057;-73
2023/01/22 06:14:10;;;;;;;14.97;8.90;;;2.30;94.30;;;2.77;64.35;99462.66;4944867;28;122858;-72
2023/01/22 06:16:37;;;;;;;19.20;10.30;;;2.30;94.30;;;2.77;64.24;99454.47;4931091;28;123724;-72
2023/01/22 06:19:04;;;;;;;13.97;9.40;;;2.30;94.30;;;2.78;64.18;99464.31;4956046;28;119350;-73
2023/01/22 06:21:30;;;;;;;14.87;10.13;;;2.30;94.30;;;2.80;64.09;99464.91;4960873;28;118165;-73
2023/01/22 06:23:57;;;;;;;17.00;10.57;;;2.30;94.60;;;2.81;64.07;99469.28;4963811;28;124253;-77
2023/01/22 06:26:23;;;;;;;16.80;9.70;;;2.30;94.30;;;2.82;64.21;99473.63;4961428;28;123666;-73
2023/01/22 06:28:50;;;;;;;13.37;8.83;;;2.40;94.40;;;2.85;64.17;99470.44;4959177;28;119516;-73
2023/01/22 06:31:16;;;;;;;16.50;10.40;;;2.40;94.40;;;2.85;64.13;99473.19;4966904;28;119043;-76
2023/01/22 06:33:43;;;;;;;13.83;8.87;;;2.40;94.40;;;2.86;64.10;99475.63;4967692;28;124623;-76
2023/01/22 06:36:10;;;;;;;15.87;9.60;;;2.40;94.40;;;2.88;64.22;99475.41;4970855;28;122847;-73
2023/01/22 06:38:38;;;;;;;14.70;8.77;;;2.40;94.40;;;2.89;64.14;99482.50;4969916;28;120586;-73
2023/01/22 06:41:04;;;;;;;16.40;9.67;;;2.40;94.40;;;2.89;64.28;99477.06;4957185;28;119659;-73
2023/01/22 06:43:31;;;;;;;16.30;9.33;;;2.40;94.40;;;2.91;63.71;99491.28;4966184;28;124499;-73
2023/01/22 06:45:57;;;;;;;15.90;8.40;;;2.40;94.40;;;2.91;64.23;99483.09;4959201;28;124552;-73
2023/01/22 06:48:24;;;;;;;15.30;8.93;;;2.40;94.30;;;2.91;64.06;99487.75;4967917;28;119351;-73
2023/01/22 06:50:50;;;;;;;18.40;9.83;;;2.40;94.30;;;2.91;64.47;99491.28;4965479;28;119229;-73
2023/01/22 06:53:17;;;;;;;19.43;9.97;;;3.80;94.90;;;2.91;64.04;99493.19;4967848;28;124201;-73
2023/01/22 06:55:44;;;;;;;16.80;10.17;;;2.50;94.30;;;2.90;64.56;99492.34;4964638;28;124193;-73
2023/01/22 06:58:10;;;;;;;17.27;9.47;;;2.50;94.40;;;2.92;64.41;99501.13;4967893;28;119259;-73
2023/01/22 07:00:37;;;;;;;17.37;9.87;;;2.50;94.40;;;2.92;64.09;99495.66;4952520;28;119049;-74
2023/01/22 07:03:07;;;;;;;15.93;10.00;;;2.50;94.40;;;2.96;64.18;99507.75;4965132;28;123927;-73
2023/01/22 07:05:34;;;;;;;15.70;9.93;;;2.50;94.40;;;2.94;64.29;99498.16;4970407;28;123873;-73
2023/01/22 07:08:01;;;;;;;18.10;10.30;;;2.50;94.40;;;2.94;64.31;99498.97;4968748;28;119326;-73
2023/01/22 07:10:28;;;;;;;15.90;9.10;;;2.50;94.60;;;2.95;63.88;99497.91;4968450;28;119675;-73
2023/01/22 07:12:57;;;;;;;13.27;9.00;;;2.50;94.40;;;2.97;63.98;99503.13;4959743;28;123903;-73
2023/01/22 07:15:25;;;;;;;15.50;10.13;;;2.50;94.40;;;2.96;64.11;99507.75;4949397;28;123848;-73
2023/01/22 07:17:53;;;;;;;16.93;9.73;;;2.50;94.40;;;2.95;64.00;99505.25;4958914;28;119609;-73
2023/01/22 07:20:22;;;;;;;15.60;9.90;;;2.50;94.50;;;2.93;64.38;99513.72;4956861;28;119572;-73
2023/01/22 07:22:50;;;;;;;17.00;9.87;;;3.80;95.00;;;2.95;64.11;99510.72;4962769;28;123908;-73
2023/01/22 07:25:18;;;;;;;15.20;10.23;;;2.40;94.50;;;2.97;64.49;99514.03;4967327;28;123838;-73
2023/01/22 07:27:45;;;;;;;17.13;10.10;;;2.50;94.50;;;3.00;64.20;99519.00;4964764;28;120218;-73
2023/01/22 07:30:12;;;;;;;20.60;11.03;;;2.80;94.70;;;3.03;64.74;99519.34;4967175;28;120505;-73
2023/01/22 07:32:39;;;;;;;14.13;8.77;;;2.50;94.50;;;3.06;64.47;99524.34;4967040;28;123664;-73
2023/01/22 07:35:06;;;;;;;16.00;9.60;;;2.60;94.50;;;3.07;64.29;99520.53;4968127;28;123801;-73
2023/01/22 07:37:35;;;;;;;18.10;10.63;;;2.60;94.50;;;3.07;64.31;99523.25;4954193;28;118666;-73
2023/01/22 07:40:02;;;;;;;19.20;10.43;;;2.60;94.50;;;3.06;64.55;99518.88;4963644;28;118790;-73
2023/01/22 07:42:28;;;;;;;17.00;9.70;;;2.60;94.50;;;3.07;64.23;99519.69;4958020;28;122687;-73
2023/01/22 07:44:55;;;;;;;16.47;10.00;;;2.60;94.50;;;3.06;64.13;99518.88;4956762;28;123272;-73
2023/01/22 07:47:21;;;;;;;14.20;9.20;;;2.90;94.60;;;3.04;64.16;99521.00;4962804;28;119653;-73
2023/01/22 07:49:47;;;;;;;16.53;9.77;;;2.60;94.50;;;3.05;64.23;99519.09;4963241;28;119014;-72
2023/01/22 07:52:14;;;;;;;15.37;10.23;;;2.60;94.50;;;3.06;64.29;99523.47;4963714;28;123620;-72
2023/01/22 07:54:40;;;;;;;16.07;10.33;;;2.60;94.50;;;3.06;64.37;99524.34;4955386;28;123829;-73
2023/01/22 07:57:07;;;;;;;14.97;9.60;;;2.60;94.60;;;3.09;64.42;99525.75;4961678;28;119239;-72
2023/01/22 07:59:34;;;;;;;18.67;11.27;;;2.60;94.60;;;3.09;64.80;99523.84;4963535;28;118782;-73
2023/01/22 08:02:00;;;;;;;20.10;10.60;;;2.60;94.60;;;3.10;64.06;99525.47;4952730;28;123550;-73
2023/01/22 08:04:27;;;;;;;17.80;11.00;;;2.60;94.60;;;3.13;63.88;99528.81;4949067;28;124029;-73
2023/01/22 08:06:53;;;;;;;16.73;10.17;;;2.60;94.60;;;3.14;64.53;99530.44;4953138;28;119833;-73
2023/01/22 08:09:24;;;;;;;17.67;10.37;;;2.70;94.60;;;3.14;63.99;99531.25;4951265;28;119010;-73
2023/01/22 08:11:51;;;;;;;16.57;10.00;;;2.80;94.60;;;3.15;64.15;99532.94;4954499;28;123936;-74
2023/01/22 08:14:19;;;;;;;16.00;9.50;;;2.70;94.60;;;3.17;64.51;99535.41;4961158;28;123656;-73
2023/01/22 08:16:45;;;;;;;15.10;9.77;;;2.70;94.60;;;3.19;64.55;99546.91;4931499;28;118971;-73
2023/01/22 08:19:12;;;;;;;15.63;9.40;;;2.70;94.60;;;3.21;64.56;99544.78;4946793;28;118984;-73
2023/01/22 08:21:39;;;;;;;20.77;10.20;;;2.70;94.70;;;3.23;64.74;99548.94;4958672;28;125032;-73
2023/01/22 08:24:07;;;;;;;17.80;10.07;;;3.30;94.90;;;3.27;64.49;99551.97;4961355;28;123236;-73
2023/01/22 08:26:33;;;;;;;17.73;10.43;;;2.70;94.70;;;3.29;64.09;99555.31;4958398;28;119966;-74
2023/01/22 08:29:00;;;;;;;18.10;10.97;;;3.10;94.90;;;3.32;64.81;99554.81;4957456;28;119010;-73
2023/01/22 08:31:26;;;;;;;16.97;10.53;;;3.00;94.80;;;3.33;64.29;99570.09;4957168;28;123733;-72
2023/01/22 08:33:53;;;;;;;20.70;11.03;;;2.80;94.70;;;3.33;64.25;99572.84;4955052;28;123932;-74
2023/01/22 08:36:19;;;;;;;18.70;10.27;;;2.80;94.70;;;3.34;64.71;99577.25;4961691;28;119610;-73
2023/01/22 08:38:46;;;;;;;19.87;12.13;;;3.20;94.80;;;3.33;64.54;99575.56;4964152;28;119224;-71
2023/01/22 08:41:14;;;;;;;18.27;10.30;;;2.80;94.70;;;3.35;64.24;99581.63;4960714;28;123921;-73
2023/01/22 08:43:41;;;;;;;17.10;9.77;;;2.80;94.70;;;3.35;64.78;99576.16;4960710;28;122534;-73
2023/01/22 08:46:07;;;;;;;17.00;10.27;;;2.90;94.70;;;3.34;64.40;99579.97;4956537;28;119339;-72
2023/01/22 08:48:34;;;;;;;15.63;9.60;;;2.90;94.70;;;3.35;64.66;99576.16;4946781;28;118761;-74
2023/01/22 08:51:00;;;;;;;20.83;11.70;;;2.80;94.70;;;3.34;64.38;99574.50;4959951;28;123608;-72
2023/01/22 08:53:27;;;;;;;17.73;11.07;;;2.80;94.60;;;3.35;64.59;99575.34;4961226;28;123814;-71
2023/01/22 08:55:54;;;;;;;18.47;12.00;;;2.80;94.60;;;3.33;64.40;99575.56;4947260;28;119136;-72
2023/01/22 08:58:21;;;;;;;17.47;10.73;;;2.90;94.70;;;3.34;64.86;99571.78;4959266;28;118849;-72
2023/01/22 09:00:48;;;;;;;17.07;10.37;;;3.70;95.00;;;3.35;64.45;99581.63;4958606;28;123881;-72
2023/01/22 09:03:14;;;;;;;18.23;11.03;;;2.90;94.70;;;3.36;64.02;99576.97;4961512;28;123643;-71
2023/01/22 09:05:41;;;;;;;18.17;10.27;;;2.90;94.70;;;3.36;64.66;99574.25;4955619;28;120335;-72
2023/01/22 09:08:07;;;;;;;21.00;12.53;;;4.10;95.20;;;3.38;64.20;99580.31;4960153;28;120475;-73
2023/01/22 09:10:34;;;;;;;18.20;10.13;;;2.90;94.70;;;3.37;64.25;99584.13;4961045;28;124033;-73
2023/01/22 09:13:01;;;;;;;17.10;11.03;;;2.90;94.70;;;3.39;64.72;99582.81;4961431;28;124279;-72
2023/01/22 09:15:27;;;;;;;23.70;11.33;;;2.90;94.70;;;3.42;64.07;99581.47;4953425;28;118014;-72
2023/01/22 09:17:54;;;;;;;16.23;10.83;;;2.90;94.70;;;3.44;64.30;99585.63;4947048;28;118870;-73
2023/01/22 09:20:21;;;;;;;15.90;10.73;;;2.90;94.70;;;3.43;64.20;99586.69;4955320;28;123954;-74
2023/01/22 09:22:49;;;;;;;18.93;10.87;;;2.90;94.70;;;3.44;64.29;99591.09;4957658;28;123805;-73
2023/01/22 09:25:15;;;;;;;17.33;11.03;;;2.90;94.70;;;3.43;64.02;99588.59;4948283;28;119683;-73
2023/01/22 09:27:42;;;;;;;17.40;9.60;;;2.90;94.70;;;3.40;64.08;99586.34;4955790;28;119169;-72
2023/01/22 09:30:10;;;;;;;18.70;11.20;;;2.90;94.70;;;3.38;64.44;99589.31;4962450;28;123866;-73
2023/01/22 09:32:36;;;;;;;15.93;10.60;;;2.90;94.70;;;3.40;64.71;99587.19;4963764;28;123616;-72
2023/01/22 09:35:03;;;;;;;19.77;11.33;;;2.90;94.80;;;3.42;64.36;99586.94;4961224;28;119232;-77
2023/01/22 09:37:29;;;;;;;18.10;11.00;;;2.90;94.80;;;3.40;64.75;99589.91;4949554;28;119076;-73
2023/01/22 09:39:56;;;;;;;17.60;10.60;;;2.90;94.80;;;3.41;64.44;99591.59;4964166;28;123980;-72
2023/01/22 09:42:34;;;;;;;21.50;13.53;;;2.90;94.80;;;3.42;64.45;99587.75;4974150;28;124045;-73
2023/01/22 09:45:09;;;;;;;18.47;11.33;;;2.90;94.90;;;3.42;64.06;99590.50;4954526;28;118856;-74
2023/01/22 09:47:44;;;;;;;18.20;11.00;;;2.80;94.90;;;3.43;64.88;99589.41;4969390;28;118125;-74
2023/01/22 09:50:23;;;;;;;19.73;11.40;;;2.90;95.00;;;3.49;64.52;99591.19;4951565;28;123828;-74
2023/01/22 09:52:53;;;;;;;18.77;9.93;;;2.90;95.10;;;3.50;64.68;99597.47;4963994;28;123907;-74
2023/01/22 09:55:29;;;;;;;20.00;12.30;;;3.80;95.40;;;3.54;64.38;99601.34;4961374;28;119014;-74
2023/01/22 09:58:00;;;;;;;20.60;11.27;;;3.00;95.00;;;3.53;64.60;99605.16;4958440;28;119208;-75
2023/01/22 10:00:39;;;;;;;22.83;12.37;;;3.00;94.90;;;3.57;64.68;99600.03;4947881;28;123886;-74
2023/01/22 10:03:35;;;;;;;15.67;8.90;;;3.00;94.90;;;3.56;64.20;99598.38;4962533;28;123429;-74
2023/01/22 10:06:21;;;;;;;16.10;9.03;;;3.10;94.90;;;3.57;64.64;99606.31;4960981;28;119255;-73
2023/01/22 10:09:23;;;;;;;18.23;11.00;;;3.10;94.90;;;3.60;64.54;99610.47;4969860;28;117997;-74
2023/01/22 10:11:54;;;;;;;24.23;11.60;;;3.10;94.90;;;3.60;64.42;99605.00;4854541;28;123857;-75
2023/01/22 10:14:27;;;;;;;21.33;11.00;;;3.10;94.90;;;3.61;64.85;99606.66;4939244;28;123790;-75
2023/01/22 10:16:59;;;;;;;19.90;11.20;;;3.10;94.90;;;3.58;64.41;99610.72;4948944;28;119229;-72
2023/01/22 10:19:42;;;;;;;19.40;10.80;;;3.00;95.00;;;3.60;65.03;99610.47;4963541;28;118014;-74
2023/01/22 10:22:23;;;;;;;17.97;11.00;;;3.00;95.00;;;3.58;64.03;99607.16;4955183;28;124208;-73
2023/01/22 10:24:51;;;;;;;20.37;11.73;;;3.00;95.00;;;3.58;64.56;99615.38;4947644;28;123776;-74
2023/01/22 10:27:22;;;;;;;19.73;11.43;;;3.00;95.00;;;3.61;64.56;99620.34;4951956;28;119148;-73
2023/01/22 10:30:24;;;;;;;21.10;11.13;;;3.00;95.00;;;3.65;64.36;99616.00;4942496;28;118618;-73